sensor_id;sensor_type;location;lat;lon;timestamp;temperature;humidity
7034;DHT22;3558;53.176;10.412;2024-02-28T03:46:10;10.50;73.50
7034;DHT22;3558;53.176;10.412;2024-02-28T03:48:35;10.50;73.50
7034;DHT22;3558;53.176;10.412;2024-02-28T03:51:01;10.50;73.50
7034;DHT22;3558;53.176;10.412;2024-02-28T03:53:26;10.50;73.50
7034;DHT22;3558;53.176;10.412;2024-02-28T03:55:52;10.50;73.40
7034;DHT22;3558;53.176;10.412;2024-02-28T03:58:17;10.50;73.40
7034;DHT22;3558;53.176;10.412;2024-02-28T04:00:43;10.40;73.40
7034;DHT22;3558;53.176;10.412;2024-02-28T04:03:11;10.40;73.30
7034;DHT22;3558;53.176;10.412;2024-02-28T04:05:39;10.60;73.40
7034;DHT22;3558;53.176;10.412;2024-02-28T04:08:05;10.50;73.30
7034;DHT22;3558;53.176;10.412;2024-02-28T04:10:30;10.40;73.20
7034;DHT22;3558;53.176;10.412;2024-02-28T04:12:57;10.40;73.20
7034;DHT22;3558;53.176;10.412;2024-02-28T04:15:22;10.40;73.20
7034;DHT22;3558;53.176;10.412;2024-02-28T04:17:47;10.40;73.20
7034;DHT22;3558;53.176;10.412;2024-02-28T04:20:13;10.40;73.20
7034;DHT22;3558;53.176;10.412;2024-02-28T04:22:39;10.40;73.70
7034;DHT22;3558;53.176;10.412;2024-02-28T04:25:05;10.40;73.20
7034;DHT22;3558;53.176;10.412;2024-02-28T04:27:32;10.40;73.20
7034;DHT22;3558;53.176;10.412;2024-02-28T04:29:57;10.40;73.20
7034;DHT22;3558;53.176;10.412;2024-02-28T04:32:23;10.30;73.10
7034;DHT22;3558;53.176;10.412;2024-02-28T04:34:48;10.30;73.10
7034;DHT22;3558;53.176;10.412;2024-02-28T04:37:14;10.30;73.00
7034;DHT22;3558;53.176;10.412;2024-02-28T04:39:40;10.30;73.10
7034;DHT22;3558;53.176;10.412;2024-02-28T04:42:05;10.30;73.00
7034;DHT22;3558;53.176;10.412;2024-02-28T04:44:31;10.30;73.10
7034;DHT22;3558;53.176;10.412;2024-02-28T04:46:57;10.30;73.10
7034;DHT22;3558;53.176;10.412;2024-02-28T04:49:22;10.30;73.10
7034;DHT22;3558;53.176;10.412;2024-02-28T04:51:48;10.30;73.00
7034;DHT22;3558;53.176;10.412;2024-02-28T04:54:14;10.30;73.00
7034;DHT22;3558;53.176;10.412;2024-02-28T04:56:40;10.30;73.00
7034;DHT22;3558;53.176;10.412;2024-02-28T04:59:06;10.30;73.00
7034;DHT22;3558;53.176;10.412;2024-02-28T05:01:32;10.30;72.90
7034;DHT22;3558;53.176;10.412;2024-02-28T05:03:57;10.30;73.00
7034;DHT22;3558;53.176;10.412;2024-02-28T05:06:23;10.20;73.00
7034;DHT22;3558;53.176;10.412;2024-02-28T05:08:48;10.30;73.00
7034;DHT22;3558;53.176;10.412;2024-02-28T05:11:14;10.20;72.90
7034;DHT22;3558;53.176;10.412;2024-02-28T05:13:39;10.20;73.00
7034;DHT22;3558;53.176;10.412;2024-02-28T05:16:12;10.20;73.00
7034;DHT22;3558;53.176;10.412;2024-02-28T05:18:38;10.20;72.90
7034;DHT22;3558;53.176;10.412;2024-02-28T05:21:03;10.20;72.90
7034;DHT22;3558;53.176;10.412;2024-02-28T05:23:29;10.20;72.90
7034;DHT22;3558;53.176;10.412;2024-02-28T05:25:56;10.10;72.90
7034;DHT22;3558;53.176;10.412;2024-02-28T05:28:21;10.20;72.90
7034;DHT22;3558;53.176;10.412;2024-02-28T05:30:47;10.20;73.40
7034;DHT22;3558;53.176;10.412;2024-02-28T05:33:12;10.10;72.90
7034;DHT22;3558;53.176;10.412;2024-02-28T05:35:38;10.10;72.90
7034;DHT22;3558;53.176;10.412;2024-02-28T05:38:03;10.10;72.80
7034;DHT22;3558;53.176;10.412;2024-02-28T05:40:29;10.10;72.80
7034;DHT22;3558;53.176;10.412;2024-02-28T05:42:54;10.10;72.80
7034;DHT22;3558;53.176;10.412;2024-02-28T05:45:20;10.10;72.80
7034;DHT22;3558;53.176;10.412;2024-02-28T05:47:45;10.10;72.90
7034;DHT22;3558;53.176;10.412;2024-02-28T05:50:10;10.10;72.80
7034;DHT22;3558;53.176;10.412;2024-02-28T05:52:36;10.10;72.90
7034;DHT22;3558;53.176;10.412;2024-02-28T05:55:02;10.10;72.90
7034;DHT22;3558;53.176;10.412;2024-02-28T05:57:28;10.10;72.90
7034;DHT22;3558;53.176;10.412;2024-02-28T05:59:53;10.00;72.80
7034;DHT22;3558;53.176;10.412;2024-02-28T06:02:19;10.10;72.90
7034;DHT22;3558;53.176;10.412;2024-02-28T06:04:44;10.00;72.80
7034;DHT22;3558;53.176;10.412;2024-02-28T06:07:09;10.00;72.80
7034;DHT22;3558;53.176;10.412;2024-02-28T06:09:35;10.00;72.80
7034;DHT22;3558;53.176;10.412;2024-02-28T06:12:00;10.00;72.80
7034;DHT22;3558;53.176;10.412;2024-02-28T06:14:27;10.00;72.80
7034;DHT22;3558;53.176;10.412;2024-02-28T06:16:52;10.00;72.80
7034;DHT22;3558;53.176;10.412;2024-02-28T06:19:18;10.00;72.80
7034;DHT22;3558;53.176;10.412;2024-02-28T06:21:43;10.00;72.80
7034;DHT22;3558;53.176;10.412;2024-02-28T06:24:09;10.00;72.70
7034;DHT22;3558;53.176;10.412;2024-02-28T06:26:34;10.00;72.70
7034;DHT22;3558;53.176;10.412;2024-02-28T06:29:00;10.00;72.80
7034;DHT22;3558;53.176;10.412;2024-02-28T06:31:29;10.00;72.80
7034;DHT22;3558;53.176;10.412;2024-02-28T06:33:56;10.00;72.80
7034;DHT22;3558;53.176;10.412;2024-02-28T06:36:22;10.00;72.80
7034;DHT22;3558;53.176;10.412;2024-02-28T06:38:47;10.00;72.80
7034;DHT22;3558;53.176;10.412;2024-02-28T06:41:13;9.90;72.70
7034;DHT22;3558;53.176;10.412;2024-02-28T06:43:38;10.00;72.80
7034;DHT22;3558;53.176;10.412;2024-02-28T06:46:04;9.90;72.70
7034;DHT22;3558;53.176;10.412;2024-02-28T06:48:30;9.90;72.70
7034;DHT22;3558;53.176;10.412;2024-02-28T06:50:56;9.90;72.70
7034;DHT22;3558;53.176;10.412;2024-02-28T06:53:21;9.90;72.70
7034;DHT22;3558;53.176;10.412;2024-02-28T06:55:47;9.90;72.80
7034;DHT22;3558;53.176;10.412;2024-02-28T06:58:14;9.90;72.80
7034;DHT22;3558;53.176;10.412;2024-02-28T07:00:40;9.90;72.80
7034;DHT22;3558;53.176;10.412;2024-02-28T07:03:06;9.90;72.80
7034;DHT22;3558;53.176;10.412;2024-02-28T07:05:32;9.90;72.80
7034;DHT22;3558;53.176;10.412;2024-02-28T07:07:59;9.90;72.80
7034;DHT22;3558;53.176;10.412;2024-02-28T07:10:24;9.90;72.80
7034;DHT22;3558;53.176;10.412;2024-02-28T07:12:50;9.90;72.80
7034;DHT22;3558;53.176;10.412;2024-02-28T07:15:15;9.90;72.80
7034;DHT22;3558;53.176;10.412;2024-02-28T07:17:44;9.90;72.80
7034;DHT22;3558;53.176;10.412;2024-02-28T07:20:10;9.90;72.80
7034;DHT22;3558;53.176;10.412;2024-02-28T07:22:36;9.90;72.80
7034;DHT22;3558;53.176;10.412;2024-02-28T07:25:02;9.90;72.90
7034;DHT22;3558;53.176;10.412;2024-02-28T07:27:27;9.90;72.90
7034;DHT22;3558;53.176;10.412;2024-02-28T07:29:53;9.90;72.90
7034;DHT22;3558;53.176;10.412;2024-02-28T07:32:18;9.90;72.90
7034;DHT22;3558;53.176;10.412;2024-02-28T07:34:44;10.00;73.00
7034;DHT22;3558;53.176;10.412;2024-02-28T07:37:09;10.00;72.90
7034;DHT22;3558;53.176;10.412;2024-02-28T07:39:35;10.00;73.00
7034;DHT22;3558;53.176;10.412;2024-02-28T07:42:00;10.00;73.00
7034;DHT22;3558;53.176;10.412;2024-02-28T07:44:26;10.00;73.00
7034;DHT22;3558;53.176;10.412;2024-02-28T07:46:51;10.00;73.10
7034;DHT22;3558;53.176;10.412;2024-02-28T07:49:17;10.00;73.10
7034;DHT22;3558;53.176;10.412;2024-02-28T07:51:42;10.00;73.10
7034;DHT22;3558;53.176;10.412;2024-02-28T07:54:07;10.00;73.20
7034;DHT22;3558;53.176;10.412;2024-02-28T07:56:33;10.00;73.20
7034;DHT22;3558;53.176;10.412;2024-02-28T07:58:58;10.00;73.20
7034;DHT22;3558;53.176;10.412;2024-02-28T08:01:24;10.00;73.30
7034;DHT22;3558;53.176;10.412;2024-02-28T08:03:49;10.00;73.20
7034;DHT22;3558;53.176;10.412;2024-02-28T08:06:15;10.10;73.80
7034;DHT22;3558;53.176;10.412;2024-02-28T08:08:44;10.10;73.30
7034;DHT22;3558;53.176;10.412;2024-02-28T08:11:10;10.10;73.30
7034;DHT22;3558;53.176;10.412;2024-02-28T08:13:36;10.10;73.40
7034;DHT22;3558;53.176;10.412;2024-02-28T08:16:01;10.10;73.40
7034;DHT22;3558;53.176;10.412;2024-02-28T08:18:27;10.10;73.40
7034;DHT22;3558;53.176;10.412;2024-02-28T08:20:54;10.20;73.50
7034;DHT22;3558;53.176;10.412;2024-02-28T08:23:23;10.20;73.50
7034;DHT22;3558;53.176;10.412;2024-02-28T08:25:48;10.20;73.60
7034;DHT22;3558;53.176;10.412;2024-02-28T08:28:14;10.20;73.60
7034;DHT22;3558;53.176;10.412;2024-02-28T08:30:39;10.10;73.60
7034;DHT22;3558;53.176;10.412;2024-02-28T08:33:06;10.20;73.70
7034;DHT22;3558;53.176;10.412;2024-02-28T08:35:32;10.20;73.70
7034;DHT22;3558;53.176;10.412;2024-02-28T08:37:58;10.30;73.80
7034;DHT22;3558;53.176;10.412;2024-02-28T08:40:23;10.30;73.80
7034;DHT22;3558;53.176;10.412;2024-02-28T08:42:48;10.30;73.70
7034;DHT22;3558;53.176;10.412;2024-02-28T08:45:18;10.30;73.80
7034;DHT22;3558;53.176;10.412;2024-02-28T08:47:43;10.30;73.80
7034;DHT22;3558;53.176;10.412;2024-02-28T08:50:10;10.30;73.80
7034;DHT22;3558;53.176;10.412;2024-02-28T08:52:35;10.40;73.90
7034;DHT22;3558;53.176;10.412;2024-02-28T08:55:01;10.40;73.90
7034;DHT22;3558;53.176;10.412;2024-02-28T08:57:26;10.40;74.00
7034;DHT22;3558;53.176;10.412;2024-02-28T08:59:53;10.40;74.10
7034;DHT22;3558;53.176;10.412;2024-02-28T09:02:18;10.50;74.10
7034;DHT22;3558;53.176;10.412;2024-02-28T09:04:44;10.50;74.10
7034;DHT22;3558;53.176;10.412;2024-02-28T09:07:11;10.50;74.10
7034;DHT22;3558;53.176;10.412;2024-02-28T09:09:41;10.60;74.20
7034;DHT22;3558;53.176;10.412;2024-02-28T09:12:07;10.70;74.30
7034;DHT22;3558;53.176;10.412;2024-02-28T09:14:32;10.70;74.20
7034;DHT22;3558;53.176;10.412;2024-02-28T09:16:58;10.70;74.20
7034;DHT22;3558;53.176;10.412;2024-02-28T09:19:29;10.80;74.20
7034;DHT22;3558;53.176;10.412;2024-02-28T09:21:54;10.80;74.10
7034;DHT22;3558;53.176;10.412;2024-02-28T09:24:20;10.90;74.20
7034;DHT22;3558;53.176;10.412;2024-02-28T09:26:45;10.90;74.20
7034;DHT22;3558;53.176;10.412;2024-02-28T09:29:11;10.90;74.20
7034;DHT22;3558;53.176;10.412;2024-02-28T09:31:36;11.00;74.20
7034;DHT22;3558;53.176;10.412;2024-02-28T09:34:02;11.10;74.30
7034;DHT22;3558;53.176;10.412;2024-02-28T09:36:33;11.10;74.30
7034;DHT22;3558;53.176;10.412;2024-02-28T09:38:59;11.20;74.30
7034;DHT22;3558;53.176;10.412;2024-02-28T09:41:24;11.30;74.30
7034;DHT22;3558;53.176;10.412;2024-02-28T09:43:52;11.30;74.20
7034;DHT22;3558;53.176;10.412;2024-02-28T09:46:17;11.40;74.10
7034;DHT22;3558;53.176;10.412;2024-02-28T09:48:43;11.50;74.60
7034;DHT22;3558;53.176;10.412;2024-02-28T09:51:09;11.50;74.00
7034;DHT22;3558;53.176;10.412;2024-02-28T09:53:36;11.60;74.00
7034;DHT22;3558;53.176;10.412;2024-02-28T09:56:02;11.70;73.90
7034;DHT22;3558;53.176;10.412;2024-02-28T09:58:28;11.70;73.80
7034;DHT22;3558;53.176;10.412;2024-02-28T10:00:59;11.80;73.70
7034;DHT22;3558;53.176;10.412;2024-02-28T10:03:25;11.80;73.60
7034;DHT22;3558;53.176;10.412;2024-02-28T10:05:51;11.90;73.70
7034;DHT22;3558;53.176;10.412;2024-02-28T10:08:16;12.00;73.60
7034;DHT22;3558;53.176;10.412;2024-02-28T10:10:48;12.00;73.50
7034;DHT22;3558;53.176;10.412;2024-02-28T10:13:16;12.10;73.60
7034;DHT22;3558;53.176;10.412;2024-02-28T10:15:42;12.20;73.70
7034;DHT22;3558;53.176;10.412;2024-02-28T10:18:08;12.30;73.80
7034;DHT22;3558;53.176;10.412;2024-02-28T10:20:34;12.30;73.90
7034;DHT22;3558;53.176;10.412;2024-02-28T10:22:59;12.40;74.10
7034;DHT22;3558;53.176;10.412;2024-02-28T10:25:28;12.50;74.30
7034;DHT22;3558;53.176;10.412;2024-02-28T10:27:58;12.60;74.70
7034;DHT22;3558;53.176;10.412;2024-02-28T10:30:24;12.60;74.60
7034;DHT22;3558;53.176;10.412;2024-02-28T10:32:49;12.70;74.60
7034;DHT22;3558;53.176;10.412;2024-02-28T10:35:17;12.70;74.90
7034;DHT22;3558;53.176;10.412;2024-02-28T10:37:47;12.70;75.30
7034;DHT22;3558;53.176;10.412;2024-02-28T10:40:15;12.80;75.20
7034;DHT22;3558;53.176;10.412;2024-02-28T10:42:43;12.90;75.70
7034;DHT22;3558;53.176;10.412;2024-02-28T10:45:12;12.90;75.60
7034;DHT22;3558;53.176;10.412;2024-02-28T10:47:40;13.00;75.70
7034;DHT22;3558;53.176;10.412;2024-02-28T10:50:06;13.10;75.90
7034;DHT22;3558;53.176;10.412;2024-02-28T10:52:40;13.10;76.00
7034;DHT22;3558;53.176;10.412;2024-02-28T10:55:09;13.20;76.50
7034;DHT22;3558;53.176;10.412;2024-02-28T10:57:36;13.20;76.70
7034;DHT22;3558;53.176;10.412;2024-02-28T11:00:03;13.20;76.50
7034;DHT22;3558;53.176;10.412;2024-02-28T11:02:31;13.30;76.20
7034;DHT22;3558;53.176;10.412;2024-02-28T11:04:57;13.30;76.90
7034;DHT22;3558;53.176;10.412;2024-02-28T11:07:24;13.40;76.90
7034;DHT22;3558;53.176;10.412;2024-02-28T11:09:54;13.50;76.80
7034;DHT22;3558;53.176;10.412;2024-02-28T11:12:27;13.60;76.60
7034;DHT22;3558;53.176;10.412;2024-02-28T11:15:03;13.70;76.20
7034;DHT22;3558;53.176;10.412;2024-02-28T11:17:32;13.80;75.90
7034;DHT22;3558;53.176;10.412;2024-02-28T11:19:58;13.80;75.70
7034;DHT22;3558;53.176;10.412;2024-02-28T11:22:27;13.90;75.80
7034;DHT22;3558;53.176;10.412;2024-02-28T11:24:54;14.00;75.60
7034;DHT22;3558;53.176;10.412;2024-02-28T11:27:19;14.10;75.60
7034;DHT22;3558;53.176;10.412;2024-02-28T11:29:45;14.10;75.30
7034;DHT22;3558;53.176;10.412;2024-02-28T11:32:12;14.10;75.40
7034;DHT22;3558;53.176;10.412;2024-02-28T11:34:39;14.20;75.50
7034;DHT22;3558;53.176;10.412;2024-02-28T11:37:08;14.20;75.30
7034;DHT22;3558;53.176;10.412;2024-02-28T11:39:34;14.30;75.90
7034;DHT22;3558;53.176;10.412;2024-02-28T11:42:14;14.40;76.20
7034;DHT22;3558;53.176;10.412;2024-02-28T11:44:40;14.40;75.90
7034;DHT22;3558;53.176;10.412;2024-02-28T11:47:09;14.50;75.60
7034;DHT22;3558;53.176;10.412;2024-02-28T11:49:36;14.50;75.70
7034;DHT22;3558;53.176;10.412;2024-02-28T11:52:03;14.60;75.70
7034;DHT22;3558;53.176;10.412;2024-02-28T11:54:29;14.60;75.70
7034;DHT22;3558;53.176;10.412;2024-02-28T11:56:55;14.70;76.20
7034;DHT22;3558;53.176;10.412;2024-02-28T11:59:20;14.70;76.90
7034;DHT22;3558;53.176;10.412;2024-02-28T12:01:46;14.80;77.60
7034;DHT22;3558;53.176;10.412;2024-02-28T12:04:16;14.80;77.90
7034;DHT22;3558;53.176;10.412;2024-02-28T12:06:41;14.90;78.30
7034;DHT22;3558;53.176;10.412;2024-02-28T12:09:09;15.00;78.20
7034;DHT22;3558;53.176;10.412;2024-02-28T12:11:36;15.00;78.40
7034;DHT22;3558;53.176;10.412;2024-02-28T12:14:08;15.10;78.20
7034;DHT22;3558;53.176;10.412;2024-02-28T12:16:36;15.20;78.20
7034;DHT22;3558;53.176;10.412;2024-02-28T12:19:04;15.30;78.50
7034;DHT22;3558;53.176;10.412;2024-02-28T12:21:32;15.30;78.60
7034;DHT22;3558;53.176;10.412;2024-02-28T12:23:57;15.40;78.50
7034;DHT22;3558;53.176;10.412;2024-02-28T12:26:23;15.40;78.30
7034;DHT22;3558;53.176;10.412;2024-02-28T12:28:49;15.50;78.10
7034;DHT22;3558;53.176;10.412;2024-02-28T12:31:14;15.60;78.40
7034;DHT22;3558;53.176;10.412;2024-02-28T12:33:40;15.60;78.30
7034;DHT22;3558;53.176;10.412;2024-02-28T12:36:06;15.70;78.30
7034;DHT22;3558;53.176;10.412;2024-02-28T12:38:31;15.70;78.80
7034;DHT22;3558;53.176;10.412;2024-02-28T12:40:57;15.80;79.00
7034;DHT22;3558;53.176;10.412;2024-02-28T12:43:23;15.90;79.20
7034;DHT22;3558;53.176;10.412;2024-02-28T12:45:48;15.90;79.50
7034;DHT22;3558;53.176;10.412;2024-02-28T12:48:14;16.00;79.00
7034;DHT22;3558;53.176;10.412;2024-02-28T12:50:39;16.10;79.00
7034;DHT22;3558;53.176;10.412;2024-02-28T12:53:05;16.10;79.00
7034;DHT22;3558;53.176;10.412;2024-02-28T12:55:31;16.20;78.90
7034;DHT22;3558;53.176;10.412;2024-02-28T12:57:56;16.30;78.80
7034;DHT22;3558;53.176;10.412;2024-02-28T13:00:22;16.30;79.00
7034;DHT22;3558;53.176;10.412;2024-02-28T13:02:47;16.40;79.10
7034;DHT22;3558;53.176;10.412;2024-02-28T13:05:13;16.40;78.90
7034;DHT22;3558;53.176;10.412;2024-02-28T13:07:39;16.50;78.90
7034;DHT22;3558;53.176;10.412;2024-02-28T13:10:05;16.50;79.30
7034;DHT22;3558;53.176;10.412;2024-02-28T13:12:31;16.50;79.20
7034;DHT22;3558;53.176;10.412;2024-02-28T13:14:58;16.60;79.30
7034;DHT22;3558;53.176;10.412;2024-02-28T13:17:23;16.60;79.60
7034;DHT22;3558;53.176;10.412;2024-02-28T13:19:49;16.70;80.10
7034;DHT22;3558;53.176;10.412;2024-02-28T13:22:14;16.70;79.60
7034;DHT22;3558;53.176;10.412;2024-02-28T13:24:40;16.70;79.00
7034;DHT22;3558;53.176;10.412;2024-02-28T13:27:05;16.80;79.20
7034;DHT22;3558;53.176;10.412;2024-02-28T13:29:31;16.90;78.30
7034;DHT22;3558;53.176;10.412;2024-02-28T13:31:58;16.90;76.00
7034;DHT22;3558;53.176;10.412;2024-02-28T13:34:23;16.90;76.40
7034;DHT22;3558;53.176;10.412;2024-02-28T13:36:49;16.90;77.50
7034;DHT22;3558;53.176;10.412;2024-02-28T13:39:15;17.00;78.00
7034;DHT22;3558;53.176;10.412;2024-02-28T13:41:41;17.00;78.10
7034;DHT22;3558;53.176;10.412;2024-02-28T13:44:07;17.10;78.70
7034;DHT22;3558;53.176;10.412;2024-02-28T13:46:35;17.10;79.10
7034;DHT22;3558;53.176;10.412;2024-02-28T13:49:00;17.10;79.40
7034;DHT22;3558;53.176;10.412;2024-02-28T13:51:26;17.20;79.80
7034;DHT22;3558;53.176;10.412;2024-02-28T13:53:51;17.20;79.70
7034;DHT22;3558;53.176;10.412;2024-02-28T13:56:19;17.20;79.70
7034;DHT22;3558;53.176;10.412;2024-02-28T13:58:44;17.30;79.30
7034;DHT22;3558;53.176;10.412;2024-02-28T14:01:10;17.30;79.00
7034;DHT22;3558;53.176;10.412;2024-02-28T14:03:36;17.30;79.40
7034;DHT22;3558;53.176;10.412;2024-02-28T14:06:02;17.30;79.20
7034;DHT22;3558;53.176;10.412;2024-02-28T14:08:28;17.40;79.00
7034;DHT22;3558;53.176;10.412;2024-02-28T14:10:53;17.40;78.90
7034;DHT22;3558;53.176;10.412;2024-02-28T14:13:19;17.30;78.40
7034;DHT22;3558;53.176;10.412;2024-02-28T14:15:45;17.40;78.40
7034;DHT22;3558;53.176;10.412;2024-02-28T14:18:16;17.50;78.20
7034;DHT22;3558;53.176;10.412;2024-02-28T14:20:43;17.50;78.20
7034;DHT22;3558;53.176;10.412;2024-02-28T14:23:08;17.50;78.50
7034;DHT22;3558;53.176;10.412;2024-02-28T14:25:34;17.50;78.80
7034;DHT22;3558;53.176;10.412;2024-02-28T14:28:00;17.50;78.90
7034;DHT22;3558;53.176;10.412;2024-02-28T14:30:25;17.50;79.00
7034;DHT22;3558;53.176;10.412;2024-02-28T14:32:51;17.50;79.00
7034;DHT22;3558;53.176;10.412;2024-02-28T14:35:17;17.50;79.00
7034;DHT22;3558;53.176;10.412;2024-02-28T14:37:42;17.50;79.00
7034;DHT22;3558;53.176;10.412;2024-02-28T14:40:09;17.50;79.00
7034;DHT22;3558;53.176;10.412;2024-02-28T14:42:42;17.50;79.00
7034;DHT22;3558;53.176;10.412;2024-02-28T14:45:12;17.50;78.90
7034;DHT22;3558;53.176;10.412;2024-02-28T14:47:39;17.50;78.70
7034;DHT22;3558;53.176;10.412;2024-02-28T14:50:05;17.50;78.60
7034;DHT22;3558;53.176;10.412;2024-02-28T14:52:33;17.50;78.60
7034;DHT22;3558;53.176;10.412;2024-02-28T14:54:59;17.50;78.40
7034;DHT22;3558;53.176;10.412;2024-02-28T14:57:24;17.50;78.20
7034;DHT22;3558;53.176;10.412;2024-02-28T14:59:50;17.50;78.10
7034;DHT22;3558;53.176;10.412;2024-02-28T15:02:15;17.50;78.20
7034;DHT22;3558;53.176;10.412;2024-02-28T15:04:40;17.50;78.20
7034;DHT22;3558;53.176;10.412;2024-02-28T15:07:06;17.50;78.20
7034;DHT22;3558;53.176;10.412;2024-02-28T15:09:32;17.50;78.30
7034;DHT22;3558;53.176;10.412;2024-02-28T15:11:59;17.50;78.20
7034;DHT22;3558;53.176;10.412;2024-02-28T15:14:24;17.50;78.10
7034;DHT22;3558;53.176;10.412;2024-02-28T15:16:50;17.50;78.10
7034;DHT22;3558;53.176;10.412;2024-02-28T15:19:20;17.50;77.90
7034;DHT22;3558;53.176;10.412;2024-02-28T15:21:46;17.40;77.70
7034;DHT22;3558;53.176;10.412;2024-02-28T15:24:11;17.40;77.60
7034;DHT22;3558;53.176;10.412;2024-02-28T15:26:38;17.40;77.40
7034;DHT22;3558;53.176;10.412;2024-02-28T15:29:03;17.40;77.30
7034;DHT22;3558;53.176;10.412;2024-02-28T15:31:29;17.40;77.30
7034;DHT22;3558;53.176;10.412;2024-02-28T15:33:54;17.30;77.10
7034;DHT22;3558;53.176;10.412;2024-02-28T15:36:20;17.30;77.10
7034;DHT22;3558;53.176;10.412;2024-02-28T15:38:45;17.30;77.00
7034;DHT22;3558;53.176;10.412;2024-02-28T15:41:10;17.30;76.90
7034;DHT22;3558;53.176;10.412;2024-02-28T15:43:36;17.30;76.80
7034;DHT22;3558;53.176;10.412;2024-02-28T15:46:02;17.20;76.80
7034;DHT22;3558;53.176;10.412;2024-02-28T15:48:27;17.20;76.80
7034;DHT22;3558;53.176;10.412;2024-02-28T15:50:54;17.20;76.80
7034;DHT22;3558;53.176;10.412;2024-02-28T15:53:20;17.20;76.90
7034;DHT22;3558;53.176;10.412;2024-02-28T15:55:46;17.10;76.90
7034;DHT22;3558;53.176;10.412;2024-02-28T15:58:11;17.10;76.90
7034;DHT22;3558;53.176;10.412;2024-02-28T16:00:37;17.10;76.90
7034;DHT22;3558;53.176;10.412;2024-02-28T16:03:02;17.10;76.90
7034;DHT22;3558;53.176;10.412;2024-02-28T16:05:29;17.10;76.80
7034;DHT22;3558;53.176;10.412;2024-02-28T16:07:54;17.00;76.80
7034;DHT22;3558;53.176;10.412;2024-02-28T16:10:21;17.00;76.80
7034;DHT22;3558;53.176;10.412;2024-02-28T16:12:47;17.00;76.80
7034;DHT22;3558;53.176;10.412;2024-02-28T16:15:13;16.90;76.70
7034;DHT22;3558;53.176;10.412;2024-02-28T16:17:38;16.90;76.70
7034;DHT22;3558;53.176;10.412;2024-02-28T16:20:04;16.90;76.60
7034;DHT22;3558;53.176;10.412;2024-02-28T16:22:30;16.90;76.40
7034;DHT22;3558;53.176;10.412;2024-02-28T16:24:56;16.80;76.20
7034;DHT22;3558;53.176;10.412;2024-02-28T16:27:22;16.80;75.80
7034;DHT22;3558;53.176;10.412;2024-02-28T16:29:47;16.70;75.50
7034;DHT22;3558;53.176;10.412;2024-02-28T16:32:13;16.70;75.20
7034;DHT22;3558;53.176;10.412;2024-02-28T16:34:38;16.70;74.00
7034;DHT22;3558;53.176;10.412;2024-02-28T16:37:05;16.60;73.10
7034;DHT22;3558;53.176;10.412;2024-02-28T16:39:32;16.60;72.60
7034;DHT22;3558;53.176;10.412;2024-02-28T16:41:58;16.60;72.90
7034;DHT22;3558;53.176;10.412;2024-02-28T16:44:23;16.50;72.70
7034;DHT22;3558;53.176;10.412;2024-02-28T16:46:49;16.50;72.60
7034;DHT22;3558;53.176;10.412;2024-02-28T16:49:15;16.50;72.30
7034;DHT22;3558;53.176;10.412;2024-02-28T16:51:42;16.40;71.50
7034;DHT22;3558;53.176;10.412;2024-02-28T16:54:08;16.40;71.20
7034;DHT22;3558;53.176;10.412;2024-02-28T16:56:33;16.30;70.90
7034;DHT22;3558;53.176;10.412;2024-02-28T16:58:59;16.30;70.80
7034;DHT22;3558;53.176;10.412;2024-02-28T17:01:24;16.30;70.80
7034;DHT22;3558;53.176;10.412;2024-02-28T17:03:50;16.20;70.60
7034;DHT22;3558;53.176;10.412;2024-02-28T17:06:16;16.20;70.90
7034;DHT22;3558;53.176;10.412;2024-02-28T17:08:41;16.10;70.90
7034;DHT22;3558;53.176;10.412;2024-02-28T17:11:07;16.10;70.80
7034;DHT22;3558;53.176;10.412;2024-02-28T17:13:33;16.00;70.70
7034;DHT22;3558;53.176;10.412;2024-02-28T17:15:58;16.00;71.00
7034;DHT22;3558;53.176;10.412;2024-02-28T17:18:32;16.00;70.20
7034;DHT22;3558;53.176;10.412;2024-02-28T17:20:59;15.90;70.30
7034;DHT22;3558;53.176;10.412;2024-02-28T17:23:26;15.90;70.40
7034;DHT22;3558;53.176;10.412;2024-02-28T17:25:52;15.80;70.50
7034;DHT22;3558;53.176;10.412;2024-02-28T17:28:18;15.80;70.70
7034;DHT22;3558;53.176;10.412;2024-02-28T17:30:44;15.80;71.10
7034;DHT22;3558;53.176;10.412;2024-02-28T17:33:09;15.70;71.00
7034;DHT22;3558;53.176;10.412;2024-02-28T17:35:35;15.70;71.20
7034;DHT22;3558;53.176;10.412;2024-02-28T17:38:00;15.60;70.80
7034;DHT22;3558;53.176;10.412;2024-02-28T17:40:26;15.60;70.70
7034;DHT22;3558;53.176;10.412;2024-02-28T17:42:52;15.60;70.70
7034;DHT22;3558;53.176;10.412;2024-02-28T17:45:18;15.50;70.80
7034;DHT22;3558;53.176;10.412;2024-02-28T17:47:45;15.50;71.00
7034;DHT22;3558;53.176;10.412;2024-02-28T17:50:11;15.40;70.90
7034;DHT22;3558;53.176;10.412;2024-02-28T17:52:37;15.40;70.80
7034;DHT22;3558;53.176;10.412;2024-02-28T17:55:04;15.40;70.60
7034;DHT22;3558;53.176;10.412;2024-02-28T17:57:31;15.30;70.70
7034;DHT22;3558;53.176;10.412;2024-02-28T18:00:06;15.20;70.80
7034;DHT22;3558;53.176;10.412;2024-02-28T18:02:40;15.20;71.00
7034;DHT22;3558;53.176;10.412;2024-02-28T18:05:08;15.20;71.20
7034;DHT22;3558;53.176;10.412;2024-02-28T18:07:34;15.20;72.00
7034;DHT22;3558;53.176;10.412;2024-02-28T18:09:59;15.10;71.80
7034;DHT22;3558;53.176;10.412;2024-02-28T18:12:25;15.10;71.40
7034;DHT22;3558;53.176;10.412;2024-02-28T18:14:50;15.00;71.50
7034;DHT22;3558;53.176;10.412;2024-02-28T18:17:17;15.00;72.10
7034;DHT22;3558;53.176;10.412;2024-02-28T18:19:42;15.00;72.50
7034;DHT22;3558;53.176;10.412;2024-02-28T18:22:07;15.00;72.70
7034;DHT22;3558;53.176;10.412;2024-02-28T18:24:37;14.90;72.30
7034;DHT22;3558;53.176;10.412;2024-02-28T18:27:03;14.90;72.60
7034;DHT22;3558;53.176;10.412;2024-02-28T18:29:34;14.80;72.60
7034;DHT22;3558;53.176;10.412;2024-02-28T18:32:00;14.70;72.70
7034;DHT22;3558;53.176;10.412;2024-02-28T18:34:26;14.70;73.00
7034;DHT22;3558;53.176;10.412;2024-02-28T18:36:51;14.70;73.60
7034;DHT22;3558;53.176;10.412;2024-02-28T18:39:17;14.70;73.30
7034;DHT22;3558;53.176;10.412;2024-02-28T18:41:42;14.60;73.40
7034;DHT22;3558;53.176;10.412;2024-02-28T18:44:08;14.60;73.00
7034;DHT22;3558;53.176;10.412;2024-02-28T18:46:33;14.60;73.10
7034;DHT22;3558;53.176;10.412;2024-02-28T18:48:58;14.50;73.40
7034;DHT22;3558;53.176;10.412;2024-02-28T18:51:24;14.50;73.50
7034;DHT22;3558;53.176;10.412;2024-02-28T18:53:49;14.40;73.40
7034;DHT22;3558;53.176;10.412;2024-02-28T18:56:15;14.40;73.60
7034;DHT22;3558;53.176;10.412;2024-02-28T18:58:40;14.40;73.60
7034;DHT22;3558;53.176;10.412;2024-02-28T19:01:06;14.30;73.60
7034;DHT22;3558;53.176;10.412;2024-02-28T19:03:31;14.30;73.60
7034;DHT22;3558;53.176;10.412;2024-02-28T19:05:57;14.30;73.50
7034;DHT22;3558;53.176;10.412;2024-02-28T19:08:23;14.30;73.30
7034;DHT22;3558;53.176;10.412;2024-02-28T19:10:49;14.30;73.10
7034;DHT22;3558;53.176;10.412;2024-02-28T19:13:14;14.30;73.10
7034;DHT22;3558;53.176;10.412;2024-02-28T19:15:40;14.20;72.90
7034;DHT22;3558;53.176;10.412;2024-02-28T19:18:06;14.20;72.90
7034;DHT22;3558;53.176;10.412;2024-02-28T19:20:31;14.20;72.80
7034;DHT22;3558;53.176;10.412;2024-02-28T19:22:58;14.10;72.60
7034;DHT22;3558;53.176;10.412;2024-02-28T19:25:23;14.10;73.10